sensor_id;sensor_type;location;lat;lon;timestamp;temperature;humidity
37240;DHT22;23130;48.760;9.178;2023-03-23T00:00:43;13.20;99.90
37240;DHT22;23130;48.760;9.178;2023-03-23T00:03:09;13.20;99.90
37240;DHT22;23130;48.760;9.178;2023-03-23T00:05:34;13.20;99.90
37240;DHT22;23130;48.760;9.178;2023-03-23T00:08:02;13.20;99.90
37240;DHT22;23130;48.760;9.178;2023-03-23T00:10:29;13.20;99.90
37240;DHT22;23130;48.760;9.178;2023-03-23T00:12:58;13.10;99.90
37240;DHT22;23130;48.760;9.178;2023-03-23T00:15:28;13.10;99.90
37240;DHT22;23130;48.760;9.178;2023-03-23T00:17:58;13.00;99.90
37240;DHT22;23130;48.760;9.178;2023-03-23T00:20:31;13.10;99.90
37240;DHT22;23130;48.760;9.178;2023-03-23T00:23:06;13.10;99.90
37240;DHT22;23130;48.760;9.178;2023-03-23T00:25:32;13.00;99.90
37240;DHT22;23130;48.760;9.178;2023-03-23T00:27:58;13.00;99.90
37240;DHT22;23130;48.760;9.178;2023-03-23T00:30:23;13.00;99.90
37240;DHT22;23130;48.760;9.178;2023-03-23T00:32:49;12.90;99.90
37240;DHT22;23130;48.760;9.178;2023-03-23T00:35:16;12.90;99.90
37240;DHT22;23130;48.760;9.178;2023-03-23T00:37:43;12.90;99.90
37240;DHT22;23130;48.760;9.178;2023-03-23T00:40:09;12.90;99.90
37240;DHT22;23130;48.760;9.178;2023-03-23T00:42:36;12.90;99.90
37240;DHT22;23130;48.760;9.178;2023-03-23T00:45:04;12.90;99.90
37240;DHT22;23130;48.760;9.178;2023-03-23T00:47:36;12.90;99.90
37240;DHT22;23130;48.760;9.178;2023-03-23T00:50:03;12.80;99.90
37240;DHT22;23130;48.760;9.178;2023-03-23T00:52:30;12.80;99.90
37240;DHT22;23130;48.760;9.178;2023-03-23T00:54:56;12.80;99.90
37240;DHT22;23130;48.760;9.178;2023-03-23T00:57:21;12.70;99.90
37240;DHT22;23130;48.760;9.178;2023-03-23T00:59:52;12.70;99.90
37240;DHT22;23130;48.760;9.178;2023-03-23T01:02:17;12.70;99.90
37240;DHT22;23130;48.760;9.178;2023-03-23T01:04:44;12.70;99.90
37240;DHT22;23130;48.760;9.178;2023-03-23T01:07:10;12.70;99.90
37240;DHT22;23130;48.760;9.178;2023-03-23T01:09:38;12.70;99.90
37240;DHT22;23130;48.760;9.178;2023-03-23T01:12:10;12.70;99.90
37240;DHT22;23130;48.760;9.178;2023-03-23T01:14:36;12.70;99.90
37240;DHT22;23130;48.760;9.178;2023-03-23T01:17:02;12.70;99.90
37240;DHT22;23130;48.760;9.178;2023-03-23T01:19:28;12.80;99.90
37240;DHT22;23130;48.760;9.178;2023-03-23T01:21:53;12.80;99.90
37240;DHT22;23130;48.760;9.178;2023-03-23T01:24:19;12.70;99.90
37240;DHT22;23130;48.760;9.178;2023-03-23T01:26:44;12.70;99.90
37240;DHT22;23130;48.760;9.178;2023-03-23T01:29:10;12.60;99.90
37240;DHT22;23130;48.760;9.178;2023-03-23T01:31:36;12.60;99.90
37240;DHT22;23130;48.760;9.178;2023-03-23T01:34:02;12.60;99.90
37240;DHT22;23130;48.760;9.178;2023-03-23T01:36:29;12.70;99.90
37240;DHT22;23130;48.760;9.178;2023-03-23T01:38:59;12.70;99.90
37240;DHT22;23130;48.760;9.178;2023-03-23T01:41:26;12.70;99.90
37240;DHT22;23130;48.760;9.178;2023-03-23T01:46:27;12.60;99.90
37240;DHT22;23130;48.760;9.178;2023-03-23T01:48:54;12.60;99.90
37240;DHT22;23130;48.760;9.178;2023-03-23T01:51:20;12.60;99.90
37240;DHT22;23130;48.760;9.178;2023-03-23T01:53:50;12.50;99.90
37240;DHT22;23130;48.760;9.178;2023-03-23T01:56:19;12.50;99.90
37240;DHT22;23130;48.760;9.178;2023-03-23T01:58:46;12.40;99.90
37240;DHT22;23130;48.760;9.178;2023-03-23T02:01:13;12.40;99.90
37240;DHT22;23130;48.760;9.178;2023-03-23T02:03:41;12.40;99.90
37240;DHT22;23130;48.760;9.178;2023-03-23T02:06:08;12.30;99.90
37240;DHT22;23130;48.760;9.178;2023-03-23T02:08:35;12.30;99.90
37240;DHT22;23130;48.760;9.178;2023-03-23T02:11:01;12.40;99.90
37240;DHT22;23130;48.760;9.178;2023-03-23T02:13:27;12.50;99.90
37240;DHT22;23130;48.760;9.178;2023-03-23T02:16:04;12.50;99.90
37240;DHT22;23130;48.760;9.178;2023-03-23T02:18:40;12.50;99.90
37240;DHT22;23130;48.760;9.178;2023-03-23T02:24:18;12.50;99.90
37240;DHT22;23130;48.760;9.178;2023-03-23T02:26:58;12.50;99.90
37240;DHT22;23130;48.760;9.178;2023-03-23T02:32:41;12.50;99.90
37240;DHT22;23130;48.760;9.178;2023-03-23T02:35:30;12.60;99.90
37240;DHT22;23130;48.760;9.178;2023-03-23T02:38:01;12.60;99.90
37240;DHT22;23130;48.760;9.178;2023-03-23T02:40:39;12.60;99.90
37240;DHT22;23130;48.760;9.178;2023-03-23T02:43:13;12.60;99.90
37240;DHT22;23130;48.760;9.178;2023-03-23T02:45:41;12.60;99.90
37240;DHT22;23130;48.760;9.178;2023-03-23T02:48:08;12.60;99.90
37240;DHT22;23130;48.760;9.178;2023-03-23T02:50:37;12.60;99.90
37240;DHT22;23130;48.760;9.178;2023-03-23T02:53:07;12.50;99.90
37240;DHT22;23130;48.760;9.178;2023-03-23T02:55:35;12.50;99.90
37240;DHT22;23130;48.760;9.178;2023-03-23T02:58:05;12.40;99.90
37240;DHT22;23130;48.760;9.178;2023-03-23T03:00:31;12.30;99.90
37240;DHT22;23130;48.760;9.178;2023-03-23T03:02:57;12.20;99.90
37240;DHT22;23130;48.760;9.178;2023-03-23T03:05:39;12.10;99.90
37240;DHT22;23130;48.760;9.178;2023-03-23T03:13:11;12.30;99.90
37240;DHT22;23130;48.760;9.178;2023-03-23T03:15:53;12.30;99.90
37240;DHT22;23130;48.760;9.178;2023-03-23T03:18:26;12.30;99.90
37240;DHT22;23130;48.760;9.178;2023-03-23T03:20:57;12.40;99.90
37240;DHT22;23130;48.760;9.178;2023-03-23T03:23:27;12.40;99.90
37240;DHT22;23130;48.760;9.178;2023-03-23T03:25:55;12.40;99.90
37240;DHT22;23130;48.760;9.178;2023-03-23T03:28:24;12.40;99.90
37240;DHT22;23130;48.760;9.178;2023-03-23T03:30:56;12.40;99.90
37240;DHT22;23130;48.760;9.178;2023-03-23T03:33:26;12.40;99.90
37240;DHT22;23130;48.760;9.178;2023-03-23T03:36:00;12.40;99.90
37240;DHT22;23130;48.760;9.178;2023-03-23T03:38:28;12.30;99.90
37240;DHT22;23130;48.760;9.178;2023-03-23T03:40:54;12.30;99.90
37240;DHT22;23130;48.760;9.178;2023-03-23T03:43:20;12.30;99.90
37240;DHT22;23130;48.760;9.178;2023-03-23T03:45:46;12.40;99.90
37240;DHT22;23130;48.760;9.178;2023-03-23T03:48:11;12.40;99.90
37240;DHT22;23130;48.760;9.178;2023-03-23T03:50:37;12.40;99.90
37240;DHT22;23130;48.760;9.178;2023-03-23T03:53:04;12.40;99.90
37240;DHT22;23130;48.760;9.178;2023-03-23T03:55:31;12.50;99.90
37240;DHT22;23130;48.760;9.178;2023-03-23T03:58:01;12.50;99.90
37240;DHT22;23130;48.760;9.178;2023-03-23T04:00:28;12.60;99.90
37240;DHT22;23130;48.760;9.178;2023-03-23T04:02:54;12.70;99.90
37240;DHT22;23130;48.760;9.178;2023-03-23T04:05:21;12.70;99.90
37240;DHT22;23130;48.760;9.178;2023-03-23T04:07:48;12.70;99.90
37240;DHT22;23130;48.760;9.178;2023-03-23T04:10:18;12.70;99.90
37240;DHT22;23130;48.760;9.178;2023-03-23T04:12:46;12.70;99.90
37240;DHT22;23130;48.760;9.178;2023-03-23T04:15:11;12.70;99.90
37240;DHT22;23130;48.760;9.178;2023-03-23T04:17:37;12.70;99.90
37240;DHT22;23130;48.760;9.178;2023-03-23T04:20:04;12.70;99.90
37240;DHT22;23130;48.760;9.178;2023-03-23T04:22:39;12.70;99.90
37240;DHT22;23130;48.760;9.178;2023-03-23T04:25:05;12.70;99.90
37240;DHT22;23130;48.760;9.178;2023-03-23T04:27:32;12.80;99.90
37240;DHT22;23130;48.760;9.178;2023-03-23T04:29:58;12.70;99.90
37240;DHT22;23130;48.760;9.178;2023-03-23T04:32:25;12.80;99.90
37240;DHT22;23130;48.760;9.178;2023-03-23T04:35:00;12.80;99.90
37240;DHT22;23130;48.760;9.178;2023-03-23T04:37:27;12.70;99.90
37240;DHT22;23130;48.760;9.178;2023-03-23T04:39:57;12.80;99.90
37240;DHT22;23130;48.760;9.178;2023-03-23T04:42:30;12.80;99.90
37240;DHT22;23130;48.760;9.178;2023-03-23T04:44:59;12.80;99.90
37240;DHT22;23130;48.760;9.178;2023-03-23T04:47:26;12.90;99.90
37240;DHT22;23130;48.760;9.178;2023-03-23T04:49:56;13.10;99.90
37240;DHT22;23130;48.760;9.178;2023-03-23T04:52:24;13.10;99.90
37240;DHT22;23130;48.760;9.178;2023-03-23T04:54:50;13.10;99.90
37240;DHT22;23130;48.760;9.178;2023-03-23T04:57:16;13.10;99.90
37240;DHT22;23130;48.760;9.178;2023-03-23T04:59:42;13.00;99.90
37240;DHT22;23130;48.760;9.178;2023-03-23T05:02:11;13.00;99.90
37240;DHT22;23130;48.760;9.178;2023-03-23T05:04:38;13.00;99.90
37240;DHT22;23130;48.760;9.178;2023-03-23T05:07:06;13.00;99.90
37240;DHT22;23130;48.760;9.178;2023-03-23T05:09:32;12.90;99.90
37240;DHT22;23130;48.760;9.178;2023-03-23T05:11:57;12.90;99.90
37240;DHT22;23130;48.760;9.178;2023-03-23T05:14:25;13.00;99.90
37240;DHT22;23130;48.760;9.178;2023-03-23T05:16:52;13.00;99.90
37240;DHT22;23130;48.760;9.178;2023-03-23T05:19:19;13.00;99.90
37240;DHT22;23130;48.760;9.178;2023-03-23T05:21:44;13.00;99.90
37240;DHT22;23130;48.760;9.178;2023-03-23T05:24:10;13.10;99.90
37240;DHT22;23130;48.760;9.178;2023-03-23T05:26:36;13.10;99.90
37240;DHT22;23130;48.760;9.178;2023-03-23T05:29:01;13.10;99.90
37240;DHT22;23130;48.760;9.178;2023-03-23T05:31:27;13.20;99.90
37240;DHT22;23130;48.760;9.178;2023-03-23T05:33:52;13.10;99.90
37240;DHT22;23130;48.760;9.178;2023-03-23T05:36:18;13.20;99.90
37240;DHT22;23130;48.760;9.178;2023-03-23T05:38:43;13.10;99.90
37240;DHT22;23130;48.760;9.178;2023-03-23T05:41:14;13.20;99.90
37240;DHT22;23130;48.760;9.178;2023-03-23T05:43:40;13.10;99.90
37240;DHT22;23130;48.760;9.178;2023-03-23T05:46:06;13.10;99.90
37240;DHT22;23130;48.760;9.178;2023-03-23T05:48:32;13.20;99.90
37240;DHT22;23130;48.760;9.178;2023-03-23T05:50:58;13.20;99.90
37240;DHT22;23130;48.760;9.178;2023-03-23T05:53:24;13.20;99.90
37240;DHT22;23130;48.760;9.178;2023-03-23T05:55:50;13.30;99.90
37240;DHT22;23130;48.760;9.178;2023-03-23T05:58:15;13.30;99.90
37240;DHT22;23130;48.760;9.178;2023-03-23T06:00:41;13.30;99.90
37240;DHT22;23130;48.760;9.178;2023-03-23T06:03:06;13.30;99.90
37240;DHT22;23130;48.760;9.178;2023-03-23T06:05:32;13.30;99.90
37240;DHT22;23130;48.760;9.178;2023-03-23T06:07:58;13.40;99.90
37240;DHT22;23130;48.760;9.178;2023-03-23T06:10:25;13.40;99.90
37240;DHT22;23130;48.760;9.178;2023-03-23T06:12:50;13.50;99.90
37240;DHT22;23130;48.760;9.178;2023-03-23T06:15:17;13.50;99.90
37240;DHT22;23130;48.760;9.178;2023-03-23T06:17:43;13.50;99.90
37240;DHT22;23130;48.760;9.178;2023-03-23T06:20:09;13.50;99.90
37240;DHT22;23130;48.760;9.178;2023-03-23T06:22:39;13.50;99.90
37240;DHT22;23130;48.760;9.178;2023-03-23T06:25:09;13.60;99.90
37240;DHT22;23130;48.760;9.178;2023-03-23T06:27:36;13.60;99.90
37240;DHT22;23130;48.760;9.178;2023-03-23T06:30:03;13.50;99.90
37240;DHT22;23130;48.760;9.178;2023-03-23T06:32:30;13.50;99.90
37240;DHT22;23130;48.760;9.178;2023-03-23T06:34:56;13.50;99.90
37240;DHT22;23130;48.760;9.178;2023-03-23T06:37:22;13.40;99.90
37240;DHT22;23130;48.760;9.178;2023-03-23T06:39:48;13.40;99.90
37240;DHT22;23130;48.760;9.178;2023-03-23T06:42:14;13.40;99.90
37240;DHT22;23130;48.760;9.178;2023-03-23T06:44:39;13.40;99.90
37240;DHT22;23130;48.760;9.178;2023-03-23T06:47:05;13.40;99.90
37240;DHT22;23130;48.760;9.178;2023-03-23T06:49:33;13.40;99.90
37240;DHT22;23130;48.760;9.178;2023-03-23T06:52:00;13.50;99.90
37240;DHT22;23130;48.760;9.178;2023-03-23T06:54:27;13.60;99.90
37240;DHT22;23130;48.760;9.178;2023-03-23T06:56:53;13.70;99.90
37240;DHT22;23130;48.760;9.178;2023-03-23T06:59:18;13.90;99.90
37240;DHT22;23130;48.760;9.178;2023-03-23T07:01:44;14.20;99.90
37240;DHT22;23130;48.760;9.178;2023-03-23T07:04:12;14.50;99.90
37240;DHT22;23130;48.760;9.178;2023-03-23T07:06:37;14.70;99.90
37240;DHT22;23130;48.760;9.178;2023-03-23T07:09:03;14.80;99.90
37240;DHT22;23130;48.760;9.178;2023-03-23T07:11:29;14.90;99.90
37240;DHT22;23130;48.760;9.178;2023-03-23T07:13:54;15.00;99.90
37240;DHT22;23130;48.760;9.178;2023-03-23T07:16:20;14.90;99.90
37240;DHT22;23130;48.760;9.178;2023-03-23T07:18:45;14.90;99.90
37240;DHT22;23130;48.760;9.178;2023-03-23T07:21:11;14.90;99.90
37240;DHT22;23130;48.760;9.178;2023-03-23T07:23:37;14.80;99.90
37240;DHT22;23130;48.760;9.178;2023-03-23T07:26:03;14.70;99.90
37240;DHT22;23130;48.760;9.178;2023-03-23T07:28:29;14.60;99.90
37240;DHT22;23130;48.760;9.178;2023-03-23T07:30:55;14.60;99.90
37240;DHT22;23130;48.760;9.178;2023-03-23T07:33:21;14.50;99.90
37240;DHT22;23130;48.760;9.178;2023-03-23T07:35:47;14.50;99.90
37240;DHT22;23130;48.760;9.178;2023-03-23T07:38:13;14.40;99.90
37240;DHT22;23130;48.760;9.178;2023-03-23T07:40:39;14.50;99.90
37240;DHT22;23130;48.760;9.178;2023-03-23T07:43:06;14.60;99.90
37240;DHT22;23130;48.760;9.178;2023-03-23T07:45:32;14.70;99.90
37240;DHT22;23130;48.760;9.178;2023-03-23T07:47:59;14.70;99.90
37240;DHT22;23130;48.760;9.178;2023-03-23T07:50:25;14.80;99.90
37240;DHT22;23130;48.760;9.178;2023-03-23T07:52:54;15.00;99.90
37240;DHT22;23130;48.760;9.178;2023-03-23T07:55:20;15.10;99.90
37240;DHT22;23130;48.760;9.178;2023-03-23T07:57:49;15.40;99.90
37240;DHT22;23130;48.760;9.178;2023-03-23T08:00:17;15.70;99.90
37240;DHT22;23130;48.760;9.178;2023-03-23T08:02:50;16.10;99.90
37240;DHT22;23130;48.760;9.178;2023-03-23T08:05:17;16.30;99.90
37240;DHT22;23130;48.760;9.178;2023-03-23T08:07:43;16.40;99.90
37240;DHT22;23130;48.760;9.178;2023-03-23T08:10:11;16.30;99.90
37240;DHT22;23130;48.760;9.178;2023-03-23T08:12:42;16.30;99.90
37240;DHT22;23130;48.760;9.178;2023-03-23T08:15:10;16.40;99.90
37240;DHT22;23130;48.760;9.178;2023-03-23T08:17:42;16.30;99.90
37240;DHT22;23130;48.760;9.178;2023-03-23T08:20:10;16.20;99.90
37240;DHT22;23130;48.760;9.178;2023-03-23T08:22:39;16.10;99.90
37240;DHT22;23130;48.760;9.178;2023-03-23T08:25:06;16.10;99.90
37240;DHT22;23130;48.760;9.178;2023-03-23T08:27:33;16.10;99.90
37240;DHT22;23130;48.760;9.178;2023-03-23T08:29:58;16.30;99.90
37240;DHT22;23130;48.760;9.178;2023-03-23T08:32:24;16.50;99.90
37240;DHT22;23130;48.760;9.178;2023-03-23T08:34:51;16.60;99.90
37240;DHT22;23130;48.760;9.178;2023-03-23T08:37:16;16.80;99.90
37240;DHT22;23130;48.760;9.178;2023-03-23T08:39:42;16.90;99.90
37240;DHT22;23130;48.760;9.178;2023-03-23T08:42:09;16.70;99.90
37240;DHT22;23130;48.760;9.178;2023-03-23T08:44:35;16.60;99.90
37240;DHT22;23130;48.760;9.178;2023-03-23T08:47:02;16.40;99.90
37240;DHT22;23130;48.760;9.178;2023-03-23T08:49:30;16.40;99.90
37240;DHT22;23130;48.760;9.178;2023-03-23T08:51:58;16.20;99.90
37240;DHT22;23130;48.760;9.178;2023-03-23T08:54:24;16.00;99.90
37240;DHT22;23130;48.760;9.178;2023-03-23T08:56:50;16.00;99.90
37240;DHT22;23130;48.760;9.178;2023-03-23T08:59:16;16.00;99.90
37240;DHT22;23130;48.760;9.178;2023-03-23T09:01:43;15.90;99.90
37240;DHT22;23130;48.760;9.178;2023-03-23T09:04:08;15.90;99.90
37240;DHT22;23130;48.760;9.178;2023-03-23T09:06:36;16.00;99.90
37240;DHT22;23130;48.760;9.178;2023-03-23T09:09:02;16.00;99.90
37240;DHT22;23130;48.760;9.178;2023-03-23T09:11:33;16.10;99.90
37240;DHT22;23130;48.760;9.178;2023-03-23T09:13:58;16.30;99.90
37240;DHT22;23130;48.760;9.178;2023-03-23T09:16:24;16.50;99.90
37240;DHT22;23130;48.760;9.178;2023-03-23T09:18:49;16.80;99.90
37240;DHT22;23130;48.760;9.178;2023-03-23T09:21:16;17.00;99.90
37240;DHT22;23130;48.760;9.178;2023-03-23T09:23:41;17.10;99.90
37240;DHT22;23130;48.760;9.178;2023-03-23T09:26:09;17.20;99.90
37240;DHT22;23130;48.760;9.178;2023-03-23T09:28:35;17.20;99.90
37240;DHT22;23130;48.760;9.178;2023-03-23T09:31:01;17.20;99.90
37240;DHT22;23130;48.760;9.178;2023-03-23T09:33:27;17.10;99.90
37240;DHT22;23130;48.760;9.178;2023-03-23T09:35:58;17.10;99.90
37240;DHT22;23130;48.760;9.178;2023-03-23T09:38:23;16.80;99.90
37240;DHT22;23130;48.760;9.178;2023-03-23T09:43:45;16.60;99.90
37240;DHT22;23130;48.760;9.178;2023-03-23T09:46:43;16.40;99.90
37240;DHT22;23130;48.760;9.178;2023-03-23T09:49:23;16.40;99.90
37240;DHT22;23130;48.760;9.178;2023-03-23T09:54:37;16.40;99.90
37240;DHT22;23130;48.760;9.178;2023-03-23T09:57:11;16.50;99.90
37240;DHT22;23130;48.760;9.178;2023-03-23T10:02:30;16.90;99.90
37240;DHT22;23130;48.760;9.178;2023-03-23T10:05:22;17.20;99.90
37240;DHT22;23130;48.760;9.178;2023-03-23T10:07:49;17.50;99.90
37240;DHT22;23130;48.760;9.178;2023-03-23T10:10:15;17.80;99.90
37240;DHT22;23130;48.760;9.178;2023-03-23T10:12:49;18.00;99.90
37240;DHT22;23130;48.760;9.178;2023-03-23T10:15:29;18.10;99.90
37240;DHT22;23130;48.760;9.178;2023-03-23T10:18:03;18.20;99.90
37240;DHT22;23130;48.760;9.178;2023-03-23T10:25:48;18.00;99.90
37240;DHT22;23130;48.760;9.178;2023-03-23T10:28:20;18.00;99.90
37240;DHT22;23130;48.760;9.178;2023-03-23T10:30:51;18.20;99.90
37240;DHT22;23130;48.760;9.178;2023-03-23T10:33:29;18.20;99.90
37240;DHT22;23130;48.760;9.178;2023-03-23T10:36:00;18.20;99.90
37240;DHT22;23130;48.760;9.178;2023-03-23T10:38:34;18.20;99.90
37240;DHT22;23130;48.760;9.178;2023-03-23T10:41:04;18.00;99.90
37240;DHT22;23130;48.760;9.178;2023-03-23T10:43:32;18.00;99.90
37240;DHT22;23130;48.760;9.178;2023-03-23T10:46:05;18.00;99.90
37240;DHT22;23130;48.760;9.178;2023-03-23T10:48:38;17.90;99.90
37240;DHT22;23130;48.760;9.178;2023-03-23T10:51:09;17.80;99.90
37240;DHT22;23130;48.760;9.178;2023-03-23T10:53:38;17.70;99.90
37240;DHT22;23130;48.760;9.178;2023-03-23T10:56:16;17.60;99.90
37240;DHT22;23130;48.760;9.178;2023-03-23T10:58:44;17.60;99.90
37240;DHT22;23130;48.760;9.178;2023-03-23T11:01:12;17.80;99.90
37240;DHT22;23130;48.760;9.178;2023-03-23T11:03:47;18.10;99.90
37240;DHT22;23130;48.760;9.178;2023-03-23T11:06:27;18.40;99.90
37240;DHT22;23130;48.760;9.178;2023-03-23T11:09:12;18.50;99.90
37240;DHT22;23130;48.760;9.178;2023-03-23T11:11:40;18.50;99.90
37240;DHT22;23130;48.760;9.178;2023-03-23T11:14:24;18.40;99.90
37240;DHT22;23130;48.760;9.178;2023-03-23T11:16:55;18.50;99.90
37240;DHT22;23130;48.760;9.178;2023-03-23T11:21:59;18.10;99.90
37240;DHT22;23130;48.760;9.178;2023-03-23T11:24:26;18.00;99.90
37240;DHT22;23130;48.760;9.178;2023-03-23T11:26:52;18.10;99.90
37240;DHT22;23130;48.760;9.178;2023-03-23T11:29:24;18.10;99.90
37240;DHT22;23130;48.760;9.178;2023-03-23T11:34:31;18.00;99.90
37240;DHT22;23130;48.760;9.178;2023-03-23T11:37:12;17.70;99.90
37240;DHT22;23130;48.760;9.178;2023-03-23T11:40:01;17.70;99.90
37240;DHT22;23130;48.760;9.178;2023-03-23T11:42:48;18.00;99.90
37240;DHT22;23130;48.760;9.178;2023-03-23T11:50:35;19.10;99.90
37240;DHT22;23130;48.760;9.178;2023-03-23T11:56:17;19.50;99.90
37240;DHT22;23130;48.760;9.178;2023-03-23T11:58:44;19.40;99.90
37240;DHT22;23130;48.760;9.178;2023-03-23T12:06:43;19.10;99.90
37240;DHT22;23130;48.760;9.178;2023-03-23T12:12:22;18.90;99.90
37240;DHT22;23130;48.760;9.178;2023-03-23T12:17:27;18.90;99.90
37240;DHT22;23130;48.760;9.178;2023-03-23T12:20:17;19.00;99.90
37240;DHT22;23130;48.760;9.178;2023-03-23T12:23:17;19.10;99.90
37240;DHT22;23130;48.760;9.178;2023-03-23T12:25:50;19.00;99.90
37240;DHT22;23130;48.760;9.178;2023-03-23T12:41:58;18.90;99.90
37240;DHT22;23130;48.760;9.178;2023-03-23T12:44:46;19.00;99.90
37240;DHT22;23130;48.760;9.178;2023-03-23T12:50:01;19.50;99.90
37240;DHT22;23130;48.760;9.178;2023-03-23T12:52:47;19.60;99.90
37240;DHT22;23130;48.760;9.178;2023-03-23T12:55:34;19.90;99.90
37240;DHT22;23130;48.760;9.178;2023-03-23T12:58:09;19.90;99.90
37240;DHT22;23130;48.760;9.178;2023-03-23T13:01:03;19.70;99.90
37240;DHT22;23130;48.760;9.178;2023-03-23T13:03:38;19.50;99.90
37240;DHT22;23130;48.760;9.178;2023-03-23T13:06:15;19.30;99.90
37240;DHT22;23130;48.760;9.178;2023-03-23T13:11:38;18.90;99.90
37240;DHT22;23130;48.760;9.178;2023-03-23T13:17:10;18.70;99.90
37240;DHT22;23130;48.760;9.178;2023-03-23T13:22:50;18.90;99.90
37240;DHT22;23130;48.760;9.178;2023-03-23T13:25:43;19.00;99.90
37240;DHT22;23130;48.760;9.178;2023-03-23T13:28:15;19.00;99.90
37240;DHT22;23130;48.760;9.178;2023-03-23T13:30:41;19.20;99.90
37240;DHT22;23130;48.760;9.178;2023-03-23T13:33:11;19.20;99.90
37240;DHT22;23130;48.760;9.178;2023-03-23T13:35:40;19.20;99.90
37240;DHT22;23130;48.760;9.178;2023-03-23T13:38:27;19.30;99.90
37240;DHT22;23130;48.760;9.178;2023-03-23T13:40:56;19.20;99.90
37240;DHT22;23130;48.760;9.178;2023-03-23T13:43:31;19.20;99.90
37240;DHT22;23130;48.760;9.178;2023-03-23T13:46:28;19.10;99.90
37240;DHT22;23130;48.760;9.178;2023-03-23T13:56:52;18.80;99.90
37240;DHT22;23130;48.760;9.178;2023-03-23T14:01:55;18.80;99.90
37240;DHT22;23130;48.760;9.178;2023-03-23T14:04:23;18.60;99.90
37240;DHT22;23130;48.760;9.178;2023-03-23T14:06:57;18.30;99.90
37240;DHT22;23130;48.760;9.178;2023-03-23T14:09:31;18.30;99.90
37240;DHT22;23130;48.760;9.178;2023-03-23T14:12:00;18.30;99.90
37240;DHT22;23130;48.760;9.178;2023-03-23T14:15:18;18.40;99.90
37240;DHT22;23130;48.760;9.178;2023-03-23T14:17:25;18.40;99.90
37240;DHT22;23130;48.760;9.178;2023-03-23T14:19:52;18.40;99.90
37240;DHT22;23130;48.760;9.178;2023-03-23T14:22:24;18.40;99.90
37240;DHT22;23130;48.760;9.178;2023-03-23T14:24:52;18.30;99.90
37240;DHT22;23130;48.760;9.178;2023-03-23T14:27:21;18.30;99.90
37240;DHT22;23130;48.760;9.178;2023-03-23T14:29:58;18.20;99.90
37240;DHT22;23130;48.760;9.178;2023-03-23T14:32:24;18.30;99.90
37240;DHT22;23130;48.760;9.178;2023-03-23T14:34:52;18.30;99.90
37240;DHT22;23130;48.760;9.178;2023-03-23T14:37:18;18.30;99.90
37240;DHT22;23130;48.760;9.178;2023-03-23T14:39:48;18.40;99.90
37240;DHT22;23130;48.760;9.178;2023-03-23T14:42:19;18.50;99.90
37240;DHT22;23130;48.760;9.178;2023-03-23T14:44:48;18.50;99.90
37240;DHT22;23130;48.760;9.178;2023-03-23T14:47:21;18.60;99.90
37240;DHT22;23130;48.760;9.178;2023-03-23T14:49:53;18.50;99.90
37240;DHT22;23130;48.760;9.178;2023-03-23T14:52:22;18.50;99.90
37240;DHT22;23130;48.760;9.178;2023-03-23T14:54:48;18.30;99.90
37240;DHT22;23130;48.760;9.178;2023-03-23T14:57:33;18.30;99.90
37240;DHT22;23130;48.760;9.178;2023-03-23T14:59:59;18.30;99.90
37240;DHT22;23130;48.760;9.178;2023-03-23T15:02:35;18.30;99.90
37240;DHT22;23130;48.760;9.178;2023-03-23T15:05:32;18.30;99.90
37240;DHT22;23130;48.760;9.178;2023-03-23T15:08:04;18.30;99.90
37240;DHT22;23130;48.760;9.178;2023-03-23T15:10:30;18.40;99.90
37240;DHT22;23130;48.760;9.178;2023-03-23T15:12:56;18.10;99.90
37240;DHT22;23130;48.760;9.178;2023-03-23T15:15:26;18.20;99.90
37240;DHT22;23130;48.760;9.178;2023-03-23T15:17:52;18.20;99.90
37240;DHT22;23130;48.760;9.178;2023-03-23T15:20:22;18.20;99.90
37240;DHT22;23130;48.760;9.178;2023-03-23T15:22:49;18.30;99.90
37240;DHT22;23130;48.760;9.178;2023-03-23T15:27:58;18.20;99.90
37240;DHT22;23130;48.760;9.178;2023-03-23T15:30:53;18.10;99.50
37240;DHT22;23130;48.760;9.178;2023-03-23T15:33:20;18.10;99.40
37240;DHT22;23130;48.760;9.178;2023-03-23T15:35:52;18.00;99.50
37240;DHT22;23130;48.760;9.178;2023-03-23T15:38:25;17.90;99.60
37240;DHT22;23130;48.760;9.178;2023-03-23T15:40:55;17.80;99.70
37240;DHT22;23130;48.760;9.178;2023-03-23T15:43:36;17.70;99.70
37240;DHT22;23130;48.760;9.178;2023-03-23T15:49:11;17.50;99.90
37240;DHT22;23130;48.760;9.178;2023-03-23T15:51:39;17.40;99.90
37240;DHT22;23130;48.760;9.178;2023-03-23T15:54:15;17.30;99.90
37240;DHT22;23130;48.760;9.178;2023-03-23T15:56:42;17.20;99.90
37240;DHT22;23130;48.760;9.178;2023-03-23T15:59:08;17.10;99.90
37240;DHT22;23130;48.760;9.178;2023-03-23T16:01:36;17.10;99.90
37240;DHT22;23130;48.760;9.178;2023-03-23T16:04:13;17.10;99.90
37240;DHT22;23130;48.760;9.178;2023-03-23T16:06:39;17.10;99.90
37240;DHT22;23130;48.760;9.178;2023-03-23T16:09:06;17.00;99.90
37240;DHT22;23130;48.760;9.178;2023-03-23T16:11:35;16.90;99.90
37240;DHT22;23130;48.760;9.178;2023-03-23T16:14:01;16.90;99.90
37240;DHT22;23130;48.760;9.178;2023-03-23T16:16:37;16.80;99.90
37240;DHT22;23130;48.760;9.178;2023-03-23T16:19:03;16.70;99.90
37240;DHT22;23130;48.760;9.178;2023-03-23T16:21:29;16.60;99.90
37240;DHT22;23130;48.760;9.178;2023-03-23T16:23:56;16.50;99.90
37240;DHT22;23130;48.760;9.178;2023-03-23T16:26:21;16.50;99.90
37240;DHT22;23130;48.760;9.178;2023-03-23T16:28:47;16.50;99.90
37240;DHT22;23130;48.760;9.178;2023-03-23T16:31:13;16.40;99.90
37240;DHT22;23130;48.760;9.178;2023-03-23T16:33:38;16.40;99.90
37240;DHT22;23130;48.760;9.178;2023-03-23T16:36:04;16.40;99.90
37240;DHT22;23130;48.760;9.178;2023-03-23T16:38:30;16.30;99.90
37240;DHT22;23130;48.760;9.178;2023-03-23T16:40:56;16.20;99.90
37240;DHT22;23130;48.760;9.178;2023-03-23T16:43:22;16.20;99.90
37240;DHT22;23130;48.760;9.178;2023-03-23T16:45:47;16.10;99.90
37240;DHT22;23130;48.760;9.178;2023-03-23T16:48:15;16.10;99.90
37240;DHT22;23130;48.760;9.178;2023-03-23T16:50:41;16.00;99.90
37240;DHT22;23130;48.760;9.178;2023-03-23T16:53:08;15.90;99.90
37240;DHT22;23130;48.760;9.178;2023-03-23T16:55:35;15.90;99.90
37240;DHT22;23130;48.760;9.178;2023-03-23T16:58:01;15.90;99.90
37240;DHT22;23130;48.760;9.178;2023-03-23T17:00:27;15.90;99.90
37240;DHT22;23130;48.760;9.178;2023-03-23T17:02:54;15.80;99.90
37240;DHT22;23130;48.760;9.178;2023-03-23T17:05:23;15.80;99.90
37240;DHT22;23130;48.760;9.178;2023-03-23T17:07:50;15.80;99.90
37240;DHT22;23130;48.760;9.178;2023-03-23T17:10:16;15.70;99.90
37240;DHT22;23130;48.760;9.178;2023-03-23T17:12:42;15.70;99.90
37240;DHT22;23130;48.760;9.178;2023-03-23T17:15:09;15.60;99.90
37240;DHT22;23130;48.760;9.178;2023-03-23T17:17:35;15.60;99.90